createdAt,value
2019-04-07T00:00:57.000Z,42.63
2019-04-07T00:03:23.993Z,37.93
2019-04-07T00:05:50.730Z,43.77
2019-04-07T00:08:17.826Z,44.20
2019-04-07T00:10:44.669Z,42.90
2019-04-07T00:13:12.397Z,42.80
2019-04-07T00:15:38.989Z,43.03
2019-04-07T00:18:05.514Z,41.07
2019-04-07T00:20:32.133Z,39.43
2019-04-07T00:22:58.583Z,44.20
2019-04-07T00:25:25.139Z,47.80
2019-04-07T00:27:51.951Z,48.00
2019-04-07T00:30:19.075Z,48.50
2019-04-07T00:32:46.775Z,48.67
2019-04-07T00:35:23.279Z,44.23
2019-04-07T00:37:41.992Z,44.67
2019-04-07T00:40:08.788Z,46.47
2019-04-07T00:42:35.345Z,40.20
2019-04-07T00:45:03.652Z,39.77
2019-04-07T00:47:30.694Z,40.97
2019-04-07T00:49:57.605Z,43.40
2019-04-07T00:52:24.881Z,42.47
2019-04-07T00:54:51.407Z,49.93
2019-04-07T00:57:18.062Z,49.60
2019-04-07T00:59:45.230Z,52.80
2019-04-07T01:02:12.268Z,55.23
2019-04-07T01:04:38.828Z,52.97
2019-04-07T01:07:05.346Z,56.10
2019-04-07T01:09:32.618Z,57.63
2019-04-07T01:11:59.544Z,58.20
2019-04-07T01:14:26.315Z,52.53
2019-04-07T01:16:52.947Z,59.13
2019-04-07T01:19:19.977Z,53.43
2019-04-07T01:21:46.885Z,57.50
2019-04-07T01:24:13.392Z,55.80
2019-04-07T01:26:40.504Z,59.17
2019-04-07T01:29:07.076Z,53.37
2019-04-07T01:31:33.347Z,56.97
2019-04-07T01:33:59.656Z,54.90
2019-04-07T01:36:26.539Z,55.23
2019-04-07T01:38:53.295Z,55.97
2019-04-07T01:41:21.736Z,50.03
2019-04-07T01:43:49.959Z,54.33
2019-04-07T01:46:18.984Z,53.50
2019-04-07T01:48:50.221Z,48.90
2019-04-07T01:51:24.681Z,49.43
2019-04-07T01:54:10.259Z,56.70
2019-04-07T01:56:50.383Z,46.53
2019-04-07T01:59:22.067Z,50.47
2019-04-07T02:02:08.314Z,46.40
2019-04-07T02:04:36.733Z,43.70
2019-04-07T02:10:16.420Z,43.77
2019-04-07T02:12:59.839Z,47.33
2019-04-07T02:15:40.587Z,43.87
2019-04-07T02:18:12.345Z,44.30
2019-04-07T02:20:54.178Z,46.80
2019-04-07T02:23:31.737Z,49.20
2019-04-07T02:26:06.087Z,54.60
2019-04-07T02:28:51.113Z,54.23
2019-04-07T02:31:25.253Z,53.67
2019-04-07T02:33:56.249Z,53.67
2019-04-07T02:36:41.860Z,55.83
2019-04-07T02:39:19.545Z,54.87
2019-04-07T02:41:51.674Z,57.37
2019-04-07T02:44:32.002Z,56.50
2019-04-07T02:47:09.855Z,105.97
2019-04-07T02:49:56.196Z,91.73
2019-04-07T02:52:31.776Z,65.40
2019-04-07T02:55:16.580Z,57.77
2019-04-07T02:57:48.664Z,53.83
2019-04-07T03:00:18.306Z,55.57
2019-04-07T03:02:49.797Z,51.80
2019-04-07T03:05:36.492Z,54.87
2019-04-07T03:08:05.739Z,56.00
2019-04-07T03:10:35.057Z,55.10
2019-04-07T03:13:06.429Z,54.50
2019-04-07T03:15:36.336Z,51.43
2019-04-07T03:18:24.142Z,51.63
2019-04-07T03:20:57.380Z,59.23
2019-04-07T03:23:31.727Z,58.17
2019-04-07T03:26:06.212Z,160.60
2019-04-07T03:28:51.490Z,117.93
2019-04-07T03:31:22.513Z,59.53
2019-04-07T03:33:51.941Z,52.53
2019-04-07T03:36:23.600Z,45.57
2019-04-07T03:38:51.019Z,46.13
2019-04-07T03:41:22.212Z,45.97
2019-04-07T03:43:50.863Z,40.27
2019-04-07T03:46:20.293Z,50.60
2019-04-07T03:49:07.398Z,40.20
2019-04-07T03:51:36.432Z,41.67
2019-04-07T03:54:08.845Z,39.57
2019-04-07T03:56:53.517Z,43.10
2019-04-07T03:59:40.517Z,37.50
2019-04-07T04:02:21.685Z,41.37
2019-04-07T04:04:55.766Z,41.57
2019-04-07T04:07:35.769Z,38.70
2019-04-07T04:10:06.666Z,38.97
2019-04-07T04:12:37.941Z,42.53
2019-04-07T04:15:16.907Z,38.77
2019-04-07T04:17:43.641Z,37.77
2019-04-07T04:20:10.673Z,37.70
2019-04-07T04:22:37.957Z,37.27
2019-04-07T04:25:05.488Z,46.03
2019-04-07T04:27:31.883Z,41.17
2019-04-07T04:29:58.458Z,39.30
2019-04-07T04:32:25.558Z,41.87
2019-04-07T04:34:51.958Z,40.40
2019-04-07T04:37:34.532Z,45.33
2019-04-07T04:39:47.512Z,47.90
2019-04-07T04:42:14.046Z,46.92
2019-04-07T04:44:40.617Z,44.33
2019-04-07T04:47:07.935Z,40.83
2019-04-07T04:49:35.278Z,39.00
2019-04-07T04:52:01.741Z,38.03
2019-04-07T04:54:28.979Z,39.03
2019-04-07T04:56:55.801Z,40.27
2019-04-07T04:59:22.084Z,45.33
2019-04-07T05:01:48.800Z,46.53
2019-04-07T05:04:15.240Z,45.50
2019-04-07T05:06:42.327Z,46.73
2019-04-07T05:09:09.134Z,43.40
2019-04-07T05:11:35.914Z,45.47
2019-04-07T05:14:03.825Z,44.57
2019-04-07T05:16:30.460Z,37.57
2019-04-07T05:18:57.349Z,40.07
2019-04-07T05:21:23.980Z,40.63
2019-04-07T05:23:50.475Z,45.00
2019-04-07T05:26:16.848Z,38.97
2019-04-07T05:28:43.889Z,40.43
2019-04-07T05:31:10.348Z,43.23
2019-04-07T05:33:36.779Z,48.17
2019-04-07T05:36:03.745Z,44.50
2019-04-07T05:38:30.314Z,38.53
2019-04-07T05:40:57.426Z,36.97
2019-04-07T05:43:23.883Z,41.23
2019-04-07T05:45:50.926Z,48.40
2019-04-07T05:48:20.120Z,45.33
2019-04-07T05:50:46.088Z,43.57
2019-04-07T05:53:14.711Z,44.77
2019-04-07T05:55:41.112Z,45.30
2019-04-07T05:58:08.513Z,47.53
2019-04-07T06:00:35.128Z,49.13
2019-04-07T06:03:06.549Z,48.13
2019-04-07T06:05:31.282Z,48.57
2019-04-07T06:08:00.873Z,48.50
2019-04-07T06:10:28.670Z,51.67
2019-04-07T06:12:55.329Z,47.57
2019-04-07T06:15:22.528Z,47.37
2019-04-07T06:17:50.103Z,47.40
2019-04-07T06:20:17.843Z,54.27
2019-04-07T06:22:46.939Z,47.73
2019-04-07T06:25:13.267Z,53.53
2019-04-07T06:27:40.416Z,52.67
2019-04-07T06:30:09.713Z,50.63
2019-04-07T06:32:37.875Z,48.33
2019-04-07T06:35:05.848Z,49.93
2019-04-07T06:37:32.955Z,48.93
2019-04-07T06:39:59.381Z,48.13
2019-04-07T06:42:26.676Z,53.53
2019-04-07T06:44:53.222Z,49.27
2019-04-07T06:47:24.945Z,47.43
2019-04-07T06:50:05.779Z,45.43
2019-04-07T06:52:39.794Z,45.13
2019-04-07T06:55:26.637Z,43.93
2019-04-07T06:57:57.129Z,47.10
2019-04-07T07:00:31.224Z,47.33
2019-04-07T07:03:06.120Z,44.10
2019-04-07T07:05:41.115Z,37.40
2019-04-07T07:08:21.897Z,41.77
2019-04-07T07:11:08.287Z,37.50
2019-04-07T07:13:48.890Z,33.83
2019-04-07T07:16:23.948Z,36.57
2019-04-07T07:19:02.165Z,36.13
2019-04-07T07:21:39.910Z,36.13
2019-04-07T07:24:07.097Z,35.80
2019-04-07T07:26:35.446Z,38.50
2019-04-07T07:29:03.075Z,37.27
2019-04-07T07:31:29.816Z,37.37
2019-04-07T07:33:56.297Z,33.77
2019-04-07T07:36:23.954Z,36.70
2019-04-07T07:38:59.060Z,33.03
2019-04-07T07:41:20.636Z,36.53
2019-04-07T07:43:47.238Z,30.10
2019-04-07T07:46:17.841Z,33.97
2019-04-07T07:48:42.177Z,29.63
2019-04-07T07:51:12.931Z,32.33
2019-04-07T07:53:37.315Z,27.50
2019-04-07T07:56:08.365Z,29.57
2019-04-07T07:58:33.608Z,29.77
2019-04-07T08:01:01.416Z,28.03
2019-04-07T08:03:28.131Z,28.80
2019-04-07T08:05:56.514Z,27.77
2019-04-07T08:08:23.418Z,30.77
2019-04-07T08:10:50.720Z,26.90
2019-04-07T08:13:17.900Z,28.37
2019-04-07T08:15:44.608Z,26.80
2019-04-07T08:18:11.444Z,26.67
2019-04-07T08:20:38.457Z,30.23
2019-04-07T08:23:05.374Z,25.30
2019-04-07T08:25:31.954Z,27.90
2019-04-07T08:28:02.159Z,25.67
2019-04-07T08:30:27.190Z,27.87
2019-04-07T08:32:57.639Z,25.60
2019-04-07T08:35:23.248Z,24.17
2019-04-07T08:37:50.043Z,25.60
2019-04-07T08:40:16.883Z,23.97
2019-04-07T08:42:44.419Z,23.63
2019-04-07T08:45:12.084Z,23.93
2019-04-07T08:47:39.182Z,22.73
2019-04-07T08:50:08.453Z,21.87
2019-04-07T08:52:38.470Z,23.97
2019-04-07T08:55:05.010Z,21.87
2019-04-07T08:57:32.421Z,23.77
2019-04-07T08:59:59.171Z,26.73
2019-04-07T09:02:28.436Z,21.13
2019-04-07T09:04:54.641Z,21.43
2019-04-07T09:07:23.634Z,23.23
2019-04-07T09:09:50.015Z,20.43
2019-04-07T09:12:17.455Z,20.37
2019-04-07T09:14:44.122Z,14.37
2019-04-07T09:17:12.710Z,17.93
2019-04-07T09:19:47.082Z,19.20
2019-04-07T09:22:15.590Z,17.87
2019-04-07T09:25:06.355Z,18.60
2019-04-07T09:27:32.780Z,18.90
2019-04-07T09:30:09.026Z,17.23
2019-04-07T09:32:40.560Z,17.23
2019-04-07T09:35:15.539Z,16.60
2019-04-07T09:37:53.307Z,16.10
2019-04-07T09:40:29.329Z,18.43
2019-04-07T09:43:01.287Z,19.17
2019-04-07T09:45:32.465Z,17.80
2019-04-07T09:48:06.536Z,16.43
2019-04-07T09:50:38.591Z,16.63
2019-04-07T09:53:23.632Z,16.23
2019-04-07T09:55:58.235Z,17.37
2019-04-07T09:58:45.317Z,17.97
2019-04-07T10:01:20.021Z,17.27
2019-04-07T10:03:56.363Z,17.10
2019-04-07T10:06:39.921Z,17.07
2019-04-07T10:09:17.439Z,15.43
2019-04-07T10:11:51.909Z,14.43
2019-04-07T10:14:27.144Z,21.90
2019-04-07T10:17:01.680Z,16.03
2019-04-07T10:19:36.311Z,14.50
2019-04-07T10:22:04.879Z,14.93
2019-04-07T10:24:42.167Z,14.10
2019-04-07T10:27:22.494Z,15.87
2019-04-07T10:30:05.819Z,14.93
2019-04-07T10:32:50.712Z,14.90
2019-04-07T10:35:19.132Z,13.47
2019-04-07T10:37:53.240Z,12.90
2019-04-07T10:40:22.519Z,17.03
2019-04-07T10:42:56.591Z,12.30
2019-04-07T10:46:04.093Z,11.93
2019-04-07T10:48:36.684Z,12.73
2019-04-07T10:51:08.181Z,16.57
2019-04-07T10:53:37.030Z,12.60
2019-04-07T10:56:18.739Z,12.17
2019-04-07T10:58:59.424Z,11.97
2019-04-07T11:01:27.982Z,11.43
2019-04-07T11:03:59.425Z,11.57
2019-04-07T11:06:37.127Z,13.83
2019-04-07T11:09:11.564Z,11.03
2019-04-07T11:11:40.006Z,12.53
2019-04-07T11:14:11.298Z,12.67
2019-04-07T11:16:43.164Z,12.10
2019-04-07T11:19:14.712Z,11.70
2019-04-07T11:21:55.595Z,11.73
2019-04-07T11:24:27.489Z,11.63
2019-04-07T11:27:08.141Z,11.93
2019-04-07T11:29:38.673Z,11.73
2019-04-07T11:32:10.409Z,16.20
2019-04-07T11:34:55.319Z,15.10
2019-04-07T11:37:24.485Z,11.90
2019-04-07T11:40:02.213Z,13.53
2019-04-07T11:42:42.266Z,12.33
2019-04-07T11:45:11.343Z,14.67
2019-04-07T11:47:40.563Z,11.70
2019-04-07T11:50:25.614Z,14.10
2019-04-07T11:52:57.327Z,11.97
2019-04-07T11:55:31.461Z,13.63
2019-04-07T11:58:14.335Z,15.70
2019-04-07T12:00:48.827Z,12.13
2019-04-07T12:03:18.077Z,12.80
2019-04-07T12:05:52.544Z,12.67
2019-04-07T12:08:25.147Z,13.30
2019-04-07T12:11:00.578Z,14.67
2019-04-07T12:13:33.122Z,12.80
2019-04-07T12:16:10.570Z,14.30
2019-04-07T12:18:47.188Z,15.93
2019-04-07T12:21:22.566Z,17.30
2019-04-07T12:23:58.238Z,14.47
2019-04-07T12:26:39.623Z,16.17
2019-04-07T12:29:09.129Z,17.10
2019-04-07T12:31:46.723Z,15.20
2019-04-07T12:34:32.193Z,15.90
2019-04-07T12:37:12.607Z,16.10
2019-04-07T12:39:47.270Z,14.90
2019-04-07T12:42:15.632Z,15.00
2019-04-07T12:44:46.829Z,20.20
2019-04-07T12:47:21.287Z,14.00
2019-04-07T12:50:05.157Z,14.90
2019-04-07T12:52:46.276Z,14.43
2019-04-07T12:55:26.578Z,16.67
2019-04-07T12:57:55.485Z,16.60
2019-04-07T13:00:27.625Z,15.27
2019-04-07T13:03:02.838Z,19.17
2019-04-07T13:05:37.906Z,19.40
2019-04-07T13:08:25.676Z,14.43
2019-04-07T13:11:11.798Z,15.23
2019-04-07T13:13:39.519Z,17.60
2019-04-07T13:16:26.467Z,14.43
2019-04-07T13:19:13.194Z,15.40
2019-04-07T13:21:59.511Z,15.57
2019-04-07T13:24:45.366Z,14.53
2019-04-07T13:27:22.251Z,14.43
2019-04-07T13:29:50.751Z,15.00
2019-04-07T13:32:41.600Z,15.10
2019-04-07T13:35:23.326Z,17.40
2019-04-07T13:38:09.311Z,14.97
2019-04-07T13:40:38.078Z,19.47
2019-04-07T13:43:13.350Z,15.90
2019-04-07T13:45:53.424Z,13.57
2019-04-07T13:48:21.234Z,13.87
2019-04-07T13:51:06.224Z,13.47
2019-04-07T13:53:34.600Z,15.23
2019-04-07T13:56:03.240Z,14.10
2019-04-07T13:58:41.047Z,15.40
2019-04-07T14:01:20.277Z,14.50
2019-04-07T14:03:49.316Z,13.80
2019-04-07T14:06:27.280Z,14.27
2019-04-07T14:09:02.490Z,16.27
2019-04-07T14:11:56.953Z,14.57
2019-04-07T14:14:18.991Z,13.10
2019-04-07T14:16:50.916Z,13.60
2019-04-07T14:19:23.145Z,13.30
2019-04-07T14:22:03.341Z,15.20
2019-04-07T14:24:38.300Z,17.00
2019-04-07T14:27:09.725Z,13.93
2019-04-07T14:29:51.208Z,15.33
2019-04-07T14:32:20.660Z,18.92
2019-04-07T14:34:49.919Z,14.53
2019-04-07T14:37:34.089Z,20.53
2019-04-07T14:40:05.236Z,14.47
2019-04-07T14:42:34.138Z,14.30
2019-04-07T14:45:12.139Z,14.20
2019-04-07T14:47:41.424Z,15.17
2019-04-07T14:50:13.377Z,15.53
2019-04-07T14:52:57.802Z,13.97
2019-04-07T14:55:32.542Z,14.23
2019-04-07T14:58:01.423Z,15.23
2019-04-07T15:00:30.200Z,15.17
2019-04-07T15:02:57.562Z,14.20
2019-04-07T15:05:29.841Z,15.77
2019-04-07T15:08:00.072Z,16.73
2019-04-07T15:10:28.898Z,25.27
2019-04-07T15:13:03.928Z,18.13
2019-04-07T15:15:31.253Z,16.10
2019-04-07T15:17:58.736Z,14.70
2019-04-07T15:20:25.528Z,12.90
2019-04-07T15:22:52.857Z,17.53
2019-04-07T15:25:19.553Z,18.60
2019-04-07T15:27:46.352Z,13.00
2019-04-07T15:30:15.564Z,13.77
2019-04-07T15:32:42.739Z,14.10
2019-04-07T15:35:13.213Z,14.03
2019-04-07T15:37:39.839Z,13.93
2019-04-07T15:40:07.270Z,18.33
2019-04-07T15:42:41.068Z,14.70
2019-04-07T15:45:06.492Z,18.77
2019-04-07T15:47:33.411Z,16.40
2019-04-07T15:50:00.622Z,16.50
2019-04-07T15:52:27.521Z,16.40
2019-04-07T15:54:56.124Z,16.17
2019-04-07T15:57:24.025Z,15.83
2019-04-07T15:59:50.680Z,15.77
2019-04-07T16:02:17.502Z,18.23
2019-04-07T16:04:44.190Z,18.93
2019-04-07T16:07:12.038Z,15.83
2019-04-07T16:09:49.251Z,17.10
2019-04-07T16:12:08.019Z,15.27
2019-04-07T16:14:35.183Z,22.57
2019-04-07T16:17:04.071Z,30.57
2019-04-07T16:19:39.898Z,13.83
2019-04-07T16:21:58.739Z,12.97
2019-04-07T16:24:25.760Z,15.10
2019-04-07T16:26:52.690Z,21.27
2019-04-07T16:29:20.356Z,15.83
2019-04-07T16:31:48.871Z,13.50
2019-04-07T16:34:16.501Z,15.33
2019-04-07T16:36:43.352Z,15.57
2019-04-07T16:39:10.031Z,15.03
2019-04-07T16:41:36.624Z,17.93
2019-04-07T16:44:06.963Z,15.93
2019-04-07T16:46:32.562Z,14.63
2019-04-07T16:48:59.786Z,13.70
2019-04-07T16:51:29.453Z,16.40
2019-04-07T16:53:55.155Z,15.50
2019-04-07T16:56:22.255Z,14.97
2019-04-07T16:58:50.224Z,15.90
2019-04-07T17:01:17.414Z,15.60
2019-04-07T17:03:44.286Z,17.60
2019-04-07T17:06:12.263Z,13.77
2019-04-07T17:08:39.158Z,15.53
2019-04-07T17:11:07.842Z,17.33
2019-04-07T17:13:40.787Z,13.53
2019-04-07T17:16:03.228Z,13.70
2019-04-07T17:18:41.207Z,15.77
2019-04-07T17:21:13.982Z,15.40
2019-04-07T17:23:41.067Z,16.37
2019-04-07T17:26:08.235Z,15.87
2019-04-07T17:28:35.571Z,17.00
2019-04-07T17:31:03.373Z,15.53
2019-04-07T17:33:32.605Z,16.63
2019-04-07T17:35:59.240Z,14.80
2019-04-07T17:38:45.321Z,14.43
2019-04-07T17:41:14.376Z,14.90
2019-04-07T17:43:51.388Z,16.13
2019-04-07T17:46:25.945Z,15.80
2019-04-07T17:48:58.681Z,17.23
2019-04-07T17:51:36.294Z,17.23
2019-04-07T17:54:07.903Z,14.80
2019-04-07T17:56:43.140Z,17.13
2019-04-07T17:59:16.707Z,17.07
2019-04-07T18:01:56.545Z,15.53
2019-04-07T18:04:25.540Z,16.07
2019-04-07T18:07:05.804Z,15.80
2019-04-07T18:09:33.148Z,18.17
2019-04-07T18:12:18.205Z,34.17
2019-04-07T18:15:05.774Z,26.67
2019-04-07T18:17:41.903Z,17.90
2019-04-07T18:20:13.035Z,15.57
2019-04-07T18:22:42.245Z,14.57
2019-04-07T18:25:11.001Z,15.97
2019-04-07T18:27:43.761Z,16.20
2019-04-07T18:30:16.592Z,17.67
2019-04-07T18:32:51.439Z,15.50
2019-04-07T18:35:33.112Z,19.30
2019-04-07T18:38:02.293Z,14.70
2019-04-07T18:40:31.823Z,19.87
2019-04-07T18:43:04.282Z,16.30
2019-04-07T18:45:41.454Z,19.60
2019-04-07T18:48:15.585Z,16.83
2019-04-07T18:50:44.384Z,19.40
2019-04-07T18:53:28.721Z,22.63
2019-04-07T18:56:09.857Z,19.67
2019-04-07T18:58:38.507Z,18.73
2019-04-07T19:01:08.905Z,19.20
2019-04-07T19:03:54.890Z,18.63
2019-04-07T19:06:24.769Z,20.13
2019-04-07T19:09:11.126Z,18.37
2019-04-07T19:11:42.977Z,21.73
2019-04-07T19:14:30.697Z,22.33
2019-04-07T19:16:50.923Z,19.60
2019-04-07T19:19:32.257Z,23.33
2019-04-07T19:22:07.106Z,35.03
2019-04-07T19:24:42.782Z,25.87
2019-04-07T19:27:21.155Z,19.97
2019-04-07T19:29:46.139Z,19.67
2019-04-07T19:32:23.576Z,18.87
2019-04-07T19:35:02.039Z,21.70
2019-04-07T19:37:38.367Z,21.63
2019-04-07T19:40:12.484Z,20.57
2019-04-07T19:42:49.541Z,21.57
2019-04-07T19:45:22.847Z,27.60
2019-04-07T19:47:58.187Z,25.27
2019-04-07T19:50:27.098Z,24.03
2019-04-07T19:52:56.197Z,22.10
2019-04-07T19:55:41.396Z,20.17
2019-04-07T19:58:16.035Z,24.77
2019-04-07T20:00:52.796Z,23.13
2019-04-07T20:03:39.226Z,22.33
2019-04-07T20:06:09.350Z,22.10
2019-04-07T20:08:43.705Z,22.53
2019-04-07T20:11:12.400Z,21.43
2019-04-07T20:13:41.074Z,21.20
2019-04-07T20:16:24.792Z,20.00
2019-04-07T20:19:09.519Z,21.83
2019-04-07T20:21:49.426Z,20.20
2019-04-07T20:24:23.867Z,22.77
2019-04-07T20:26:53.961Z,21.53
2019-04-07T20:29:25.835Z,30.87
2019-04-07T20:32:03.475Z,46.30
2019-04-07T20:34:42.869Z,26.80
2019-04-07T20:37:13.823Z,26.10
2019-04-07T20:40:00.155Z,20.70
2019-04-07T20:42:29.754Z,20.30
2019-04-07T20:45:04.192Z,22.20
2019-04-07T20:47:45.189Z,23.00
2019-04-07T20:50:16.485Z,20.43
2019-04-07T20:53:08.603Z,23.07
2019-04-07T20:55:30.898Z,23.53
2019-04-07T20:58:16.282Z,22.93
2019-04-07T21:00:58.337Z,19.70
2019-04-07T21:03:38.570Z,23.03
2019-04-07T21:06:28.184Z,23.10
2019-04-07T21:09:08.385Z,20.07
2019-04-07T21:11:43.904Z,21.80
2019-04-07T21:14:09.945Z,22.27
2019-04-07T21:16:47.414Z,20.13
2019-04-07T21:19:35.437Z,23.57
2019-04-07T21:22:01.364Z,22.07
2019-04-07T21:24:49.694Z,20.93
2019-04-07T21:27:33.358Z,23.67
2019-04-07T21:29:59.112Z,20.83
2019-04-07T21:32:31.164Z,19.50
2019-04-07T21:35:05.360Z,20.90
2019-04-07T21:37:36.391Z,21.13
2019-04-07T21:40:15.505Z,22.07
2019-04-07T21:42:50.303Z,23.63
2019-04-07T21:45:32.376Z,22.37
2019-04-07T21:47:58.005Z,23.50
2019-04-07T21:50:24.543Z,21.20
2019-04-07T21:52:55.372Z,23.07
2019-04-07T21:55:41.982Z,22.47
2019-04-07T21:58:10.309Z,19.03
2019-04-07T22:00:45.385Z,19.63
2019-04-07T22:03:18.051Z,20.37
2019-04-07T22:05:50.951Z,18.73
2019-04-07T22:08:20.015Z,23.83
2019-04-07T22:10:47.890Z,21.43
2019-04-07T22:13:15.497Z,24.50
2019-04-07T22:15:48.210Z,26.00
2019-04-07T22:18:11.140Z,23.57
2019-04-07T22:20:37.771Z,20.47
2019-04-07T22:23:06.274Z,21.37
2019-04-07T22:25:39.877Z,20.10
2019-04-07T22:28:06.442Z,20.33
2019-04-07T22:30:33.964Z,20.83
2019-04-07T22:33:01.939Z,21.23
2019-04-07T22:35:28.745Z,18.97
2019-04-07T22:37:55.476Z,19.97
2019-04-07T22:40:22.534Z,22.10
2019-04-07T22:42:50.024Z,20.90
2019-04-07T22:45:17.546Z,20.13
2019-04-07T22:47:44.534Z,21.57
2019-04-07T22:50:11.342Z,21.67
2019-04-07T22:52:38.265Z,30.63
2019-04-07T22:55:08.029Z,26.40
2019-04-07T22:57:33.540Z,29.17
2019-04-07T23:00:00.151Z,27.00
2019-04-07T23:02:27.622Z,27.23
2019-04-07T23:04:54.494Z,24.80
2019-04-07T23:07:21.298Z,26.23
2019-04-07T23:09:47.754Z,27.37
2019-04-07T23:12:14.737Z,27.17
2019-04-07T23:14:42.116Z,27.90
2019-04-07T23:17:08.775Z,26.50
2019-04-07T23:19:35.220Z,24.10
2019-04-07T23:22:01.491Z,28.83
2019-04-07T23:24:28.796Z,23.10
2019-04-07T23:26:55.185Z,24.70
2019-04-07T23:29:21.886Z,25.27
2019-04-07T23:31:48.327Z,32.83
2019-04-07T23:34:14.850Z,30.77
2019-04-07T23:36:41.293Z,26.73
2019-04-07T23:39:07.714Z,27.10
2019-04-07T23:41:34.102Z,28.40
2019-04-07T23:44:00.997Z,26.27
2019-04-07T23:46:28.504Z,24.83
2019-04-07T23:48:55.940Z,25.23
2019-04-07T23:51:23.257Z,24.70
2019-04-07T23:54:10.971Z,26.50
2019-04-07T23:56:42.113Z,24.60
2019-04-07T23:59:10.338Z,29.13
